createdAt,value
2023-03-17T00:00:42.763Z,101340.84
2023-03-17T00:01:56.326Z,101346.33
2023-03-17T00:02:59.872Z,101338.86
2023-03-17T00:04:02.762Z,101345.69
2023-03-17T00:05:24.270Z,101341.61
2023-03-17T00:06:29.754Z,101348.89
2023-03-17T00:07:32.875Z,101346.33
2023-03-17T00:08:36.458Z,101346.30
2023-03-17T00:09:39.237Z,101342.84
2023-03-17T00:10:42.517Z,101347.83
2023-03-17T00:11:46.519Z,101354.09
2023-03-17T00:12:55.153Z,101344.46
2023-03-17T00:13:58.121Z,101352.56
2023-03-17T00:15:01.248Z,101348.95
2023-03-17T00:16:07.578Z,101349.02
2023-03-17T00:17:14.124Z,101353.35
2023-03-17T00:18:19.611Z,101346.23
2023-03-17T00:19:35.281Z,101351.27
2023-03-17T00:20:38.171Z,101350.42
2023-03-17T00:21:42.113Z,101342.96
2023-03-17T00:22:45.441Z,101340.25
2023-03-17T00:23:51.724Z,101338.54
2023-03-17T00:24:54.788Z,101333.68
2023-03-17T00:25:57.599Z,101332.10
2023-03-17T00:27:00.745Z,101327.58
2023-03-17T00:28:04.848Z,101332.40
2023-03-17T00:29:08.584Z,101328.49
2023-03-17T00:30:11.962Z,101330.95
2023-03-17T00:31:21.616Z,101328.11
2023-03-17T00:32:24.396Z,101332.05
2023-03-17T00:33:29.879Z,101329.16
2023-03-17T00:34:34.375Z,101334.52
2023-03-17T00:35:38.357Z,101338.38
2023-03-17T00:36:42.483Z,101332.32
2023-03-17T00:37:46.833Z,101330.61
2023-03-17T00:38:51.146Z,101331.13
2023-03-17T00:39:54.083Z,101329.69
2023-03-17T00:40:57.024Z,101329.85
2023-03-17T00:41:59.787Z,101331.29
2023-03-17T00:43:03.320Z,101322.39
2023-03-17T00:44:06.523Z,101330.37
2023-03-17T00:45:10.674Z,101326.56
2023-03-17T00:46:16.621Z,101315.85
2023-03-17T00:47:19.477Z,101318.02
2023-03-17T00:48:22.262Z,101315.45
2023-03-17T00:49:26.302Z,101312.36
2023-03-17T00:50:29.568Z,101311.95
2023-03-17T00:51:32.888Z,101316.20
2023-03-17T00:52:35.619Z,101315.85
2023-03-17T00:53:39.825Z,101310.70
2023-03-17T00:54:42.646Z,101313.66
2023-03-17T00:55:46.370Z,101312.17
2023-03-17T00:56:51.000Z,101315.36
2023-03-17T00:57:54.008Z,101310.15
2023-03-17T00:58:56.879Z,101308.05
2023-03-17T00:59:59.699Z,101313.77
2023-03-17T01:01:03.357Z,101304.53
2023-03-17T01:02:07.173Z,101305.86
2023-03-17T01:03:13.508Z,101299.88
2023-03-17T01:04:16.377Z,101303.91
2023-03-17T01:05:20.007Z,101302.77
2023-03-17T01:06:22.842Z,101304.77
2023-03-17T01:07:27.099Z,101304.33
2023-03-17T01:08:31.439Z,101304.23
2023-03-17T01:09:34.959Z,101303.13
2023-03-17T01:10:37.803Z,101302.69
2023-03-17T01:11:40.539Z,101302.11
2023-03-17T01:12:45.630Z,101296.02
2023-03-17T01:13:48.756Z,101294.71
2023-03-17T01:14:51.722Z,101293.07
2023-03-17T01:15:56.520Z,101296.35
2023-03-17T01:16:59.924Z,101293.92
2023-03-17T01:18:03.104Z,101294.80
2023-03-17T01:19:06.032Z,101297.82
2023-03-17T01:20:16.879Z,101294.27
2023-03-17T01:21:20.558Z,101287.90
2023-03-17T01:22:23.542Z,101283.27
2023-03-17T01:23:26.290Z,101284.14
2023-03-17T01:24:29.159Z,101282.65
2023-03-17T01:25:32.008Z,101279.30
2023-03-17T01:26:35.062Z,101276.47
2023-03-17T01:27:38.967Z,101285.81
2023-03-17T01:28:42.097Z,101280.78
2023-03-17T01:29:45.197Z,101282.05
2023-03-17T01:30:48.067Z,101281.31
2023-03-17T01:31:51.051Z,101282.00
2023-03-17T01:32:56.254Z,101283.69
2023-03-17T01:33:59.119Z,101286.23
2023-03-17T01:35:01.874Z,101290.64
2023-03-17T01:36:05.364Z,101284.55
2023-03-17T01:37:08.330Z,101283.44
2023-03-17T01:38:11.926Z,101289.13
2023-03-17T01:39:15.293Z,101282.70
2023-03-17T01:40:22.204Z,101294.60
2023-03-17T01:41:25.145Z,101287.86
2023-03-17T01:42:28.864Z,101292.27
2023-03-17T01:43:31.590Z,101291.90
2023-03-17T01:44:34.407Z,101296.06
2023-03-17T01:46:15.100Z,101298.05
2023-03-17T01:47:22.172Z,101298.36
2023-03-17T01:48:26.511Z,101300.16
2023-03-17T01:49:35.470Z,101296.27
2023-03-17T01:50:38.301Z,101301.10
2023-03-17T01:51:57.650Z,101297.48
2023-03-17T01:53:01.064Z,101304.88
2023-03-17T01:54:09.435Z,101299.30
2023-03-17T01:55:17.296Z,101303.81
2023-03-17T01:56:20.439Z,101304.64
2023-03-17T01:57:33.387Z,101298.48
2023-03-17T01:58:36.536Z,101305.44
2023-03-17T01:59:45.919Z,101303.77
2023-03-17T02:00:48.901Z,101301.50
2023-03-17T02:01:58.216Z,101301.33
2023-03-17T02:03:01.307Z,101302.72
2023-03-17T02:04:06.487Z,101296.05
2023-03-17T02:05:12.936Z,101299.83
2023-03-17T02:06:16.389Z,101294.65
2023-03-17T02:07:20.743Z,101298.96
2023-03-17T02:08:23.600Z,101301.50
2023-03-17T02:09:28.384Z,101299.58
2023-03-17T02:10:32.371Z,101300.14
2023-03-17T02:11:35.927Z,101306.10
2023-03-17T02:12:41.891Z,101302.39
2023-03-17T02:13:45.104Z,101302.55
2023-03-17T02:14:50.078Z,101309.35
2023-03-17T02:15:53.054Z,101306.95
2023-03-17T02:16:56.309Z,101304.77
2023-03-17T02:17:59.116Z,101308.36
2023-03-17T02:19:02.156Z,101308.05
2023-03-17T02:20:17.231Z,101311.87
2023-03-17T02:21:42.190Z,101312.66
2023-03-17T02:22:48.264Z,101308.16
2023-03-17T02:23:51.507Z,101310.86
2023-03-17T02:24:59.532Z,101309.86
2023-03-17T02:26:04.145Z,101309.38
2023-03-17T02:27:14.714Z,101306.10
2023-03-17T02:28:23.167Z,101308.02
2023-03-17T02:29:25.891Z,101303.77
2023-03-17T02:30:29.332Z,101299.19
2023-03-17T02:31:33.297Z,101305.04
2023-03-17T02:32:36.916Z,101304.36
2023-03-17T02:33:39.780Z,101305.42
2023-03-17T02:34:43.953Z,101309.55
2023-03-17T02:35:47.233Z,101315.32
2023-03-17T02:36:52.139Z,101311.27
2023-03-17T02:37:56.523Z,101311.52
2023-03-17T02:38:59.416Z,101307.23
2023-03-17T02:40:07.771Z,101308.17
2023-03-17T02:41:10.687Z,101304.39
2023-03-17T02:42:14.301Z,101305.60
2023-03-17T02:43:17.101Z,101306.52
2023-03-17T02:44:20.032Z,101300.73
2023-03-17T02:45:23.462Z,101305.26
2023-03-17T02:46:27.209Z,101307.95
2023-03-17T02:47:30.341Z,101315.29
2023-03-17T02:48:36.680Z,101309.00
2023-03-17T02:49:41.315Z,101314.19
2023-03-17T02:50:44.135Z,101313.38
2023-03-17T02:51:47.567Z,101311.29
2023-03-17T02:52:50.779Z,101313.08
2023-03-17T02:53:53.726Z,101314.67
2023-03-17T02:54:56.603Z,101313.34
2023-03-17T02:55:59.466Z,101318.41
2023-03-17T02:57:02.260Z,101316.02
2023-03-17T02:58:05.406Z,101323.14
2023-03-17T02:59:08.571Z,101328.77
2023-03-17T03:00:13.448Z,101328.95
2023-03-17T03:01:16.685Z,101327.19
2023-03-17T03:02:19.572Z,101324.46
2023-03-17T03:03:22.449Z,101326.09
2023-03-17T03:04:26.311Z,101328.41
2023-03-17T03:05:29.107Z,101331.74
2023-03-17T03:06:31.860Z,101331.77
2023-03-17T03:07:35.361Z,101333.27
2023-03-17T03:08:38.174Z,101337.38
2023-03-17T03:09:42.177Z,101338.70
2023-03-17T03:10:45.105Z,101337.62
2023-03-17T03:11:48.271Z,101343.78
2023-03-17T03:12:51.101Z,101344.55
2023-03-17T03:13:53.902Z,101343.02
2023-03-17T03:14:56.711Z,101345.52
2023-03-17T03:16:00.218Z,101347.17
2023-03-17T03:17:04.559Z,101348.17
2023-03-17T03:18:07.363Z,101347.11
2023-03-17T03:19:10.203Z,101343.13
2023-03-17T03:20:14.694Z,101343.99
2023-03-17T03:21:17.544Z,101351.50
2023-03-17T03:22:20.486Z,101345.48
2023-03-17T03:23:23.236Z,101346.66
2023-03-17T03:24:25.978Z,101354.30
2023-03-17T03:25:28.739Z,101354.29
2023-03-17T03:26:31.872Z,101346.52
2023-03-17T03:27:35.110Z,101347.45
2023-03-17T03:28:38.209Z,101350.34
2023-03-17T03:29:41.797Z,101348.50
2023-03-17T03:30:45.653Z,101345.20
2023-03-17T03:31:48.709Z,101344.85
2023-03-17T03:32:51.656Z,101346.52
2023-03-17T03:33:54.678Z,101346.69
2023-03-17T03:34:57.587Z,101347.55
2023-03-17T03:36:00.433Z,101350.45
2023-03-17T03:37:03.191Z,101345.64
2023-03-17T03:38:07.261Z,101346.54
2023-03-17T03:39:11.016Z,101349.14
2023-03-17T03:40:14.983Z,101349.35
2023-03-17T03:41:18.294Z,101347.79
2023-03-17T03:42:21.044Z,101349.94
2023-03-17T03:43:24.364Z,101351.14
2023-03-17T03:44:27.246Z,101349.02
2023-03-17T03:45:30.042Z,101348.96
2023-03-17T03:46:32.854Z,101346.71
2023-03-17T03:47:35.807Z,101352.01
2023-03-17T03:48:38.594Z,101350.02
2023-03-17T03:49:41.338Z,101351.09
2023-03-17T03:50:44.432Z,101353.93
2023-03-17T03:51:47.173Z,101346.31
2023-03-17T03:52:50.324Z,101348.73
2023-03-17T03:53:53.217Z,101345.86
2023-03-17T03:54:56.333Z,101343.88
2023-03-17T03:55:59.121Z,101346.42
2023-03-17T03:57:01.911Z,101347.41
2023-03-17T03:58:04.700Z,101344.61
2023-03-17T03:59:07.612Z,101341.84
2023-03-17T04:00:11.263Z,101340.89
2023-03-17T04:01:17.758Z,101338.10
2023-03-17T04:02:20.738Z,101343.59
2023-03-17T04:03:23.557Z,101334.09
2023-03-17T04:04:26.525Z,101330.88
2023-03-17T04:05:29.373Z,101330.77
2023-03-17T04:06:32.154Z,101332.20
2023-03-17T04:07:36.411Z,101327.48
2023-03-17T04:08:39.186Z,101330.40
2023-03-17T04:09:42.552Z,101328.50
2023-03-17T04:10:45.332Z,101333.63
2023-03-17T04:11:48.249Z,101334.15
2023-03-17T04:12:51.118Z,101323.73
2023-03-17T04:13:53.936Z,101322.80
2023-03-17T04:14:56.725Z,101329.45
2023-03-17T04:15:59.457Z,101328.11
2023-03-17T04:17:03.114Z,101330.16
2023-03-17T04:18:05.857Z,101331.38
2023-03-17T04:19:09.215Z,101330.66
2023-03-17T04:20:14.382Z,101332.61
2023-03-17T04:21:19.092Z,101336.56
2023-03-17T04:22:22.145Z,101337.45
2023-03-17T04:23:24.990Z,101347.74
2023-03-17T04:24:28.867Z,101347.19
2023-03-17T04:25:31.629Z,101341.27
2023-03-17T04:26:34.453Z,101333.79
2023-03-17T04:27:37.582Z,101336.84
2023-03-17T04:28:40.745Z,101348.02
2023-03-17T04:29:44.158Z,101350.05
2023-03-17T04:30:47.094Z,101353.05
2023-03-17T04:31:50.069Z,101351.41
2023-03-17T04:32:52.886Z,101342.45
2023-03-17T04:33:55.849Z,101342.29
2023-03-17T04:34:58.750Z,101349.10
2023-03-17T04:36:01.907Z,101342.78
2023-03-17T04:37:04.792Z,101344.54
2023-03-17T04:38:09.560Z,101344.38
2023-03-17T04:39:12.698Z,101347.34
2023-03-17T04:40:16.892Z,101352.46
2023-03-17T04:41:21.375Z,101348.36
2023-03-17T04:42:24.158Z,101350.61
2023-03-17T04:43:27.197Z,101351.36
2023-03-17T04:44:30.072Z,101353.21
2023-03-17T04:45:33.327Z,101350.55
2023-03-17T04:46:36.255Z,101352.73
2023-03-17T04:47:39.465Z,101352.56
2023-03-17T04:48:42.234Z,101351.30
2023-03-17T04:49:44.992Z,101349.80
2023-03-17T04:50:48.008Z,101349.54
2023-03-17T04:51:50.843Z,101351.71
2023-03-17T04:52:54.175Z,101344.70
2023-03-17T04:53:57.233Z,101345.73
2023-03-17T04:55:00.127Z,101345.05
2023-03-17T04:56:03.051Z,101338.02
2023-03-17T04:57:06.032Z,101335.73
2023-03-17T04:58:10.354Z,101334.19
2023-03-17T04:59:14.557Z,101331.25
2023-03-17T05:00:18.329Z,101333.98
2023-03-17T05:01:22.203Z,101334.58
2023-03-17T05:02:25.056Z,101333.84
2023-03-17T05:03:28.717Z,101343.00
2023-03-17T05:04:32.456Z,101340.11
2023-03-17T05:05:36.183Z,101341.66
2023-03-17T05:06:40.678Z,101342.55
2023-03-17T05:07:44.900Z,101347.85
2023-03-17T05:08:47.758Z,101345.74
2023-03-17T05:09:50.602Z,101344.34
2023-03-17T05:10:53.375Z,101343.10
2023-03-17T05:11:56.217Z,101351.06
2023-03-17T05:12:59.161Z,101352.10
2023-03-17T05:14:02.033Z,101352.75
2023-03-17T05:15:05.464Z,101360.98
2023-03-17T05:16:09.331Z,101365.16
2023-03-17T05:17:12.175Z,101372.48
2023-03-17T05:18:16.342Z,101371.71
2023-03-17T05:19:19.120Z,101368.48
2023-03-17T05:20:21.878Z,101372.10
2023-03-17T05:21:24.937Z,101377.38
2023-03-17T05:22:27.719Z,101371.27
2023-03-17T05:23:30.575Z,101375.42
2023-03-17T05:24:33.646Z,101380.08
2023-03-17T05:25:36.973Z,101380.15
2023-03-17T05:26:40.698Z,101383.95
2023-03-17T05:27:43.492Z,101383.61
2023-03-17T05:28:46.241Z,101391.80
2023-03-17T05:29:48.999Z,101383.98
2023-03-17T05:30:53.222Z,101386.60
2023-03-17T05:31:56.033Z,101384.61
2023-03-17T05:32:59.320Z,101384.55
2023-03-17T05:34:03.282Z,101378.58
2023-03-17T05:35:06.800Z,101379.71
2023-03-17T05:36:09.637Z,101383.98
2023-03-17T05:37:13.040Z,101379.86
2023-03-17T05:38:16.131Z,101379.06
2023-03-17T05:39:19.019Z,101376.81
2023-03-17T05:40:23.966Z,101376.09
2023-03-17T05:41:27.089Z,101378.38
2023-03-17T05:42:29.948Z,101380.04
2023-03-17T05:43:32.688Z,101383.66
2023-03-17T05:44:35.703Z,101389.67
2023-03-17T05:45:39.391Z,101388.71
2023-03-17T05:46:42.202Z,101389.27
2023-03-17T05:47:45.791Z,101391.32
2023-03-17T05:48:48.973Z,101394.23
2023-03-17T05:49:51.703Z,101393.37
2023-03-17T05:50:54.499Z,101397.64
2023-03-17T05:51:57.398Z,101398.80
2023-03-17T05:53:01.098Z,101394.15
2023-03-17T05:54:03.900Z,101394.24
2023-03-17T05:55:07.888Z,101397.45
2023-03-17T05:56:10.688Z,101396.24
2023-03-17T05:57:13.440Z,101395.94
2023-03-17T05:58:16.762Z,101391.95
2023-03-17T05:59:19.591Z,101402.52
2023-03-17T06:00:23.214Z,101399.20
2023-03-17T06:01:26.197Z,101407.76
2023-03-17T06:02:29.042Z,101406.44
2023-03-17T06:03:31.921Z,101407.84
2023-03-17T06:04:34.782Z,101408.64
2023-03-17T06:05:38.049Z,101407.67
2023-03-17T06:06:41.315Z,101410.22
2023-03-17T06:07:54.044Z,101400.63
2023-03-17T06:08:58.919Z,101398.08
2023-03-17T06:10:02.344Z,101393.52
2023-03-17T06:11:05.254Z,101391.27
2023-03-17T06:12:08.587Z,101390.42
2023-03-17T06:13:11.722Z,101381.69
2023-03-17T06:14:14.661Z,101384.80
2023-03-17T06:15:17.452Z,101382.51
2023-03-17T06:16:20.842Z,101382.88
2023-03-17T06:17:23.884Z,101384.66
2023-03-17T06:18:27.128Z,101381.55
2023-03-17T06:19:30.823Z,101384.84
2023-03-17T06:20:34.735Z,101380.50
2023-03-17T06:21:37.898Z,101385.84
2023-03-17T06:22:55.197Z,101385.30
2023-03-17T06:24:03.941Z,101387.75
2023-03-17T06:25:07.060Z,101387.20
2023-03-17T06:26:10.085Z,101386.29
2023-03-17T06:27:14.387Z,101387.63
2023-03-17T06:28:17.185Z,101379.84
2023-03-17T06:29:19.938Z,101377.96
2023-03-17T06:30:22.713Z,101372.48
2023-03-17T06:31:25.595Z,101374.45
2023-03-17T06:32:28.440Z,101375.97
2023-03-17T06:33:31.330Z,101378.36
2023-03-17T06:34:34.049Z,101381.41
2023-03-17T06:35:37.392Z,101387.46
2023-03-17T06:36:41.521Z,101390.95
2023-03-17T06:37:44.365Z,101393.43
2023-03-17T06:38:47.221Z,101388.77
2023-03-17T06:39:49.984Z,101395.63
2023-03-17T06:40:52.894Z,101397.27
2023-03-17T06:41:55.657Z,101398.95
2023-03-17T06:42:58.650Z,101396.02
2023-03-17T06:44:01.507Z,101396.30
2023-03-17T06:45:04.584Z,101400.16
2023-03-17T06:46:07.526Z,101401.69
2023-03-17T06:47:10.415Z,101405.50
2023-03-17T06:48:13.404Z,101406.50
2023-03-17T06:49:16.800Z,101406.10
2023-03-17T06:50:20.072Z,101407.09
2023-03-17T06:51:22.844Z,101404.06
2023-03-17T06:52:27.668Z,101408.19
2023-03-17T06:53:30.510Z,101408.37
2023-03-17T06:54:33.519Z,101401.82
2023-03-17T06:55:36.303Z,101401.84
2023-03-17T06:56:39.094Z,101401.67
2023-03-17T06:57:42.366Z,101400.15
2023-03-17T06:58:45.584Z,101401.05
2023-03-17T06:59:48.439Z,101399.98
2023-03-17T07:00:54.144Z,101397.04
2023-03-17T07:01:57.817Z,101396.42
2023-03-17T07:03:00.723Z,101398.61
2023-03-17T07:04:03.723Z,101403.09
2023-03-17T07:05:08.110Z,101403.72
2023-03-17T07:06:11.244Z,101397.07
2023-03-17T07:07:14.011Z,101390.63
2023-03-17T07:08:18.018Z,101390.96
2023-03-17T07:09:20.946Z,101393.02
2023-03-17T07:10:24.867Z,101385.77
2023-03-17T07:11:29.274Z,101385.11
2023-03-17T07:12:33.543Z,101379.52
2023-03-17T07:13:37.371Z,101377.56
2023-03-17T07:14:40.472Z,101379.04
2023-03-17T07:15:45.374Z,101380.52
2023-03-17T07:16:48.560Z,101388.95
2023-03-17T07:17:51.910Z,101391.50
2023-03-17T07:18:55.345Z,101381.61
2023-03-17T07:19:58.068Z,101390.44
2023-03-17T07:21:02.275Z,101386.56
2023-03-17T07:22:05.088Z,101388.45
2023-03-17T07:23:14.821Z,101382.47
2023-03-17T07:24:17.862Z,101386.98
2023-03-17T07:25:20.770Z,101389.11
2023-03-17T07:26:23.477Z,101385.70
2023-03-17T07:27:26.673Z,101386.87
2023-03-17T07:28:29.871Z,101386.62
2023-03-17T07:29:34.039Z,101392.52
2023-03-17T07:30:37.539Z,101386.73
2023-03-17T07:31:40.300Z,101385.73
2023-03-17T07:32:43.920Z,101385.15
2023-03-17T07:33:47.009Z,101386.25
2023-03-17T07:34:50.048Z,101386.05
2023-03-17T07:35:54.147Z,101387.94
2023-03-17T07:36:56.949Z,101381.26
2023-03-17T07:38:00.016Z,101381.75
2023-03-17T07:39:03.862Z,101378.31
2023-03-17T07:40:08.980Z,101378.20
2023-03-17T07:41:11.927Z,101377.22
2023-03-17T07:42:15.803Z,101375.04
2023-03-17T07:43:19.953Z,101375.89
2023-03-17T07:44:23.804Z,101378.56
2023-03-17T07:45:27.964Z,101373.98
2023-03-17T07:46:30.985Z,101375.29
2023-03-17T07:47:33.825Z,101376.14
2023-03-17T07:48:40.958Z,101372.80
2023-03-17T07:49:43.917Z,101380.67
2023-03-17T07:50:46.722Z,101379.09
2023-03-17T07:51:49.545Z,101381.54
2023-03-17T07:52:52.330Z,101383.41
2023-03-17T07:54:03.673Z,101383.71
2023-03-17T07:55:13.056Z,101380.52
2023-03-17T07:56:16.541Z,101378.92
2023-03-17T07:57:19.431Z,101372.71
2023-03-17T07:58:22.227Z,101370.60
2023-03-17T07:59:25.444Z,101370.64
2023-03-17T08:00:29.187Z,101374.57
2023-03-17T08:01:32.312Z,101369.63
2023-03-17T08:02:36.369Z,101368.33
2023-03-17T08:03:41.503Z,101367.18
2023-03-17T08:04:45.308Z,101368.23
2023-03-17T08:05:57.959Z,101371.85
2023-03-17T08:07:01.859Z,101360.92
2023-03-17T08:08:06.339Z,101364.33
2023-03-17T08:09:11.163Z,101364.11
2023-03-17T08:10:14.297Z,101366.27
2023-03-17T08:11:17.712Z,101360.05
2023-03-17T08:12:20.461Z,101357.92
2023-03-17T08:13:23.259Z,101358.71
2023-03-17T08:14:26.043Z,101356.00
2023-03-17T08:15:31.065Z,101360.88
2023-03-17T08:16:33.899Z,101362.93
2023-03-17T08:17:37.294Z,101366.30
2023-03-17T08:18:40.044Z,101362.67
2023-03-17T08:19:43.125Z,101366.60
2023-03-17T08:20:45.925Z,101367.61
2023-03-17T08:21:49.444Z,101364.84
2023-03-17T08:22:52.335Z,101366.88
2023-03-17T08:23:55.389Z,101366.54
2023-03-17T08:24:58.750Z,101361.59
2023-03-17T08:26:03.345Z,101358.88
2023-03-17T08:27:07.938Z,101362.13
2023-03-17T08:28:10.764Z,101354.20
2023-03-17T08:29:13.579Z,101356.20
2023-03-17T08:30:16.525Z,101355.66
2023-03-17T08:31:21.770Z,101355.16
2023-03-17T08:32:24.641Z,101363.42
2023-03-17T08:33:27.845Z,101364.89
2023-03-17T08:34:30.924Z,101364.92
2023-03-17T08:35:34.450Z,101368.48
2023-03-17T08:36:38.086Z,101368.23
2023-03-17T08:37:40.852Z,101371.06
2023-03-17T08:38:44.946Z,101373.50
2023-03-17T08:39:47.891Z,101376.20
2023-03-17T08:40:51.247Z,101374.88
2023-03-17T08:41:54.188Z,101377.85
2023-03-17T08:42:57.603Z,101377.89
2023-03-17T08:44:00.439Z,101380.88
2023-03-17T08:45:04.533Z,101377.95
2023-03-17T08:46:12.869Z,101375.09
2023-03-17T08:47:16.245Z,101384.07
2023-03-17T08:48:19.578Z,101381.31
2023-03-17T08:49:23.085Z,101384.19
2023-03-17T08:50:26.231Z,101383.98
2023-03-17T08:51:34.768Z,101382.20
2023-03-17T08:52:38.009Z,101382.66
2023-03-17T08:53:41.475Z,101380.21
2023-03-17T08:54:44.248Z,101384.98
2023-03-17T08:55:47.149Z,101385.85
2023-03-17T08:56:49.925Z,101389.77
2023-03-17T08:57:53.006Z,101383.19
2023-03-17T08:58:56.272Z,101382.09
2023-03-17T08:59:59.112Z,101385.98
2023-03-17T09:01:03.988Z,101384.77
2023-03-17T09:02:07.628Z,101388.63
2023-03-17T09:03:10.446Z,101395.88
2023-03-17T09:04:13.277Z,101396.98
2023-03-17T09:05:17.894Z,101398.52
2023-03-17T09:06:22.203Z,101398.25
2023-03-17T09:07:25.121Z,101398.65
2023-03-17T09:08:28.214Z,101394.83
2023-03-17T09:09:33.592Z,101395.83
2023-03-17T09:10:37.058Z,101394.67
2023-03-17T09:11:40.250Z,101398.33
2023-03-17T09:12:43.013Z,101397.14
2023-03-17T09:13:47.505Z,101393.29
2023-03-17T09:14:50.534Z,101395.02
2023-03-17T09:15:53.338Z,101393.98
2023-03-17T09:16:57.012Z,101402.13
2023-03-17T09:17:59.875Z,101404.80
2023-03-17T09:19:03.790Z,101403.32
2023-03-17T09:20:07.405Z,101407.36
2023-03-17T09:21:12.050Z,101405.45
2023-03-17T09:22:17.616Z,101404.64
2023-03-17T09:23:20.870Z,101407.47
2023-03-17T09:24:23.697Z,101402.99
2023-03-17T09:25:27.320Z,101401.98
2023-03-17T09:26:30.126Z,101406.89
2023-03-17T09:27:32.894Z,101401.52
2023-03-17T09:28:35.757Z,101392.69
2023-03-17T09:29:38.880Z,101391.90
2023-03-17T09:30:45.314Z,101388.02
2023-03-17T09:31:48.545Z,101385.39
2023-03-17T09:32:51.457Z,101381.96
2023-03-17T09:33:54.791Z,101374.52
2023-03-17T09:34:57.707Z,101373.20
2023-03-17T09:36:00.751Z,101376.10
2023-03-17T09:37:03.649Z,101375.34
2023-03-17T09:38:07.675Z,101371.39
2023-03-17T09:39:10.536Z,101365.57
2023-03-17T09:40:18.191Z,101362.14
2023-03-17T09:41:20.902Z,101366.38
2023-03-17T09:42:45.512Z,101366.06
2023-03-17T09:44:03.274Z,101352.90
2023-03-17T09:45:09.646Z,101355.42
2023-03-17T09:46:39.043Z,101350.30
2023-03-17T09:48:12.221Z,101350.36
2023-03-17T09:49:27.724Z,101349.88
2023-03-17T09:50:51.826Z,101347.19
2023-03-17T09:51:55.028Z,101342.11
2023-03-17T09:53:02.068Z,101345.08
2023-03-17T09:54:26.728Z,101349.03
2023-03-17T09:55:32.660Z,101342.90
2023-03-17T09:56:38.141Z,101343.98
2023-03-17T09:57:41.354Z,101343.48
2023-03-17T09:58:58.299Z,101344.72
2023-03-17T10:00:07.652Z,101332.98
2023-03-17T10:01:10.771Z,101340.04
2023-03-17T10:02:30.114Z,101329.45
2023-03-17T10:03:34.159Z,101332.14
2023-03-17T10:04:37.250Z,101337.65
2023-03-17T10:05:40.673Z,101330.73
2023-03-17T10:06:46.853Z,101326.63
2023-03-17T10:08:22.788Z,101326.19
2023-03-17T10:09:33.985Z,101318.79
2023-03-17T10:10:49.548Z,101325.30
2023-03-17T10:12:04.516Z,101319.43
2023-03-17T10:13:16.315Z,101319.48
2023-03-17T10:14:25.428Z,101318.94
2023-03-17T10:15:41.276Z,101316.46
2023-03-17T10:17:09.389Z,101314.84
2023-03-17T10:18:16.060Z,101314.91
2023-03-17T10:19:42.500Z,101314.63
2023-03-17T10:20:57.131Z,101304.55
2023-03-17T10:22:05.619Z,101309.65
2023-03-17T10:23:15.224Z,101320.27
2023-03-17T10:24:19.215Z,101312.94
2023-03-17T10:25:29.501Z,101318.13
2023-03-17T10:26:39.850Z,101313.52
2023-03-17T10:27:49.571Z,101325.22
2023-03-17T10:28:53.512Z,101318.14
2023-03-17T10:29:57.079Z,101317.89
2023-03-17T10:31:13.517Z,101317.33
2023-03-17T10:32:16.600Z,101310.54
2023-03-17T10:33:19.461Z,101312.65
2023-03-17T10:34:36.682Z,101310.77
2023-03-17T10:35:41.344Z,101307.61
2023-03-17T10:36:49.065Z,101309.19
2023-03-17T10:37:58.926Z,101306.57
2023-03-17T10:39:10.935Z,101300.42
2023-03-17T10:40:26.959Z,101304.25
2023-03-17T10:41:30.119Z,101298.52
2023-03-17T10:42:33.144Z,101301.27
2023-03-17T10:43:43.421Z,101303.23
2023-03-17T10:44:50.823Z,101294.09
2023-03-17T10:46:02.565Z,101290.80
2023-03-17T10:47:05.678Z,101297.20
2023-03-17T10:48:10.710Z,101304.19
2023-03-17T10:49:18.091Z,101300.27
2023-03-17T10:50:28.692Z,101304.82
2023-03-17T10:51:35.496Z,101301.86
2023-03-17T10:52:40.834Z,101304.84
2023-03-17T10:53:43.867Z,101308.30
2023-03-17T10:54:51.446Z,101304.54
2023-03-17T10:55:59.072Z,101305.47
2023-03-17T10:57:06.760Z,101303.36
2023-03-17T10:58:17.369Z,101303.94
2023-03-17T10:59:28.325Z,101303.48
2023-03-17T11:00:35.543Z,101299.50
2023-03-17T11:01:41.481Z,101305.10
2023-03-17T11:02:51.058Z,101313.97
2023-03-17T11:03:54.325Z,101308.87
2023-03-17T11:05:05.509Z,101306.98
2023-03-17T11:06:11.676Z,101303.77
2023-03-17T11:07:27.179Z,101305.77
2023-03-17T11:08:55.867Z,101297.73
2023-03-17T11:10:03.259Z,101297.64
2023-03-17T11:11:10.271Z,101296.27
2023-03-17T11:12:29.969Z,101299.86
2023-03-17T11:13:33.019Z,101294.62
2023-03-17T11:14:36.470Z,101297.73
2023-03-17T11:15:48.535Z,101298.33
2023-03-17T11:17:04.877Z,101292.31
2023-03-17T11:18:16.960Z,101290.38
2023-03-17T11:19:27.089Z,101292.71
2023-03-17T11:20:52.556Z,101284.27
2023-03-17T11:22:17.118Z,101284.89
2023-03-17T11:23:41.382Z,101280.27
2023-03-17T11:25:01.094Z,101277.27
2023-03-17T11:26:24.318Z,101273.39
2023-03-17T11:27:34.981Z,101271.15
2023-03-17T11:28:42.576Z,101267.02
2023-03-17T11:30:00.887Z,101272.98
2023-03-17T11:31:15.338Z,101264.59
2023-03-17T11:32:43.770Z,101260.56
2023-03-17T11:34:00.057Z,101261.13
2023-03-17T11:35:30.992Z,101258.57
2023-03-17T11:37:07.016Z,101249.52
2023-03-17T11:38:40.153Z,101252.38
2023-03-17T11:40:03.078Z,101249.14
2023-03-17T11:41:27.323Z,101248.82
2023-03-17T11:43:18.214Z,101245.70
2023-03-17T11:44:47.460Z,101250.52
2023-03-17T11:45:57.042Z,101247.82
2023-03-17T11:47:15.834Z,101240.92
2023-03-17T11:48:18.533Z,101242.75
2023-03-17T11:49:38.701Z,101245.74
2023-03-17T11:50:52.101Z,101236.58
2023-03-17T11:52:22.121Z,101238.27
2023-03-17T11:53:27.921Z,101228.14
2023-03-17T11:54:50.683Z,101232.45
2023-03-17T11:56:06.649Z,101222.20
2023-03-17T11:57:17.579Z,101218.35
2023-03-17T11:58:46.614Z,101228.58
2023-03-17T11:59:57.717Z,101233.23
2023-03-17T12:01:02.264Z,101227.09
2023-03-17T12:02:25.448Z,101229.18
2023-03-17T12:03:43.726Z,101220.14
2023-03-17T12:05:05.177Z,101215.83
2023-03-17T12:06:18.009Z,101215.39
2023-03-17T12:07:26.946Z,101211.07
2023-03-17T12:08:52.584Z,101212.87
2023-03-17T12:10:17.157Z,101216.11
2023-03-17T12:11:28.924Z,101214.39
2023-03-17T12:12:38.191Z,101204.81
2023-03-17T12:13:46.674Z,101210.48
2023-03-17T12:14:54.036Z,101209.57
2023-03-17T12:16:04.323Z,101204.03
2023-03-17T12:17:25.844Z,101208.77
2023-03-17T12:18:38.416Z,101208.08
2023-03-17T12:20:01.222Z,101212.13
2023-03-17T12:21:17.566Z,101213.55
2023-03-17T12:22:36.480Z,101209.95
2023-03-17T12:23:52.423Z,101208.16
2023-03-17T12:25:12.728Z,101206.08
2023-03-17T12:26:20.243Z,101204.07
2023-03-17T12:27:34.680Z,101207.77
2023-03-17T12:28:46.630Z,101205.34
2023-03-17T12:29:57.213Z,101207.90
2023-03-17T12:31:11.045Z,101205.14
2023-03-17T12:32:40.437Z,101204.48